sensor_id;sensor_type;location;lat;lon;timestamp;P1;durP1;ratioP1;P2;durP2;ratioP2
55212;SDS011;41083;52.932;6.674;2023-04-25T00:01:36;3.03;;;1.05;;
55212;SDS011;41083;52.932;6.674;2023-04-25T00:04:03;4.97;;;1.25;;
55212;SDS011;41083;52.932;6.674;2023-04-25T00:06:30;6.07;;;1.35;;
55212;SDS011;41083;52.932;6.674;2023-04-25T00:08:57;10.70;;;1.70;;
55212;SDS011;41083;52.932;6.674;2023-04-25T00:11:23;6.07;;;0.98;;
55212;SDS011;41083;52.932;6.674;2023-04-25T00:13:48;6.30;;;1.80;;
55212;SDS011;41083;52.932;6.674;2023-04-25T00:16:17;4.80;;;1.25;;
55212;SDS011;41083;52.932;6.674;2023-04-25T00:18:43;4.95;;;1.20;;
55212;SDS011;41083;52.932;6.674;2023-04-25T00:21:11;5.68;;;1.13;;
55212;SDS011;41083;52.932;6.674;2023-04-25T00:23:36;3.78;;;1.10;;
55212;SDS011;41083;52.932;6.674;2023-04-25T00:26:03;2.25;;;0.93;;
55212;SDS011;41083;52.932;6.674;2023-04-25T00:28:29;4.45;;;1.33;;
55212;SDS011;41083;52.932;6.674;2023-04-25T00:30:55;5.47;;;1.42;;
55212;SDS011;41083;52.932;6.674;2023-04-25T00:33:20;3.45;;;1.00;;
55212;SDS011;41083;52.932;6.674;2023-04-25T00:35:46;4.38;;;1.02;;
55212;SDS011;41083;52.932;6.674;2023-04-25T00:38:12;5.75;;;1.45;;
55212;SDS011;41083;52.932;6.674;2023-04-25T00:40:38;8.60;;;1.75;;
55212;SDS011;41083;52.932;6.674;2023-04-25T00:43:03;6.15;;;1.40;;
55212;SDS011;41083;52.932;6.674;2023-04-25T00:45:29;3.40;;;1.02;;
55212;SDS011;41083;52.932;6.674;2023-04-25T00:47:55;4.18;;;1.02;;
55212;SDS011;41083;52.932;6.674;2023-04-25T00:50:22;4.40;;;1.17;;
55212;SDS011;41083;52.932;6.674;2023-04-25T00:52:49;5.90;;;1.25;;
55212;SDS011;41083;52.932;6.674;2023-04-25T00:55:14;4.07;;;1.25;;
55212;SDS011;41083;52.932;6.674;2023-04-25T00:57:40;3.25;;;1.90;;
55212;SDS011;41083;52.932;6.674;2023-04-25T01:00:07;4.75;;;1.30;;
55212;SDS011;41083;52.932;6.674;2023-04-25T01:02:38;2.33;;;0.75;;
55212;SDS011;41083;52.932;6.674;2023-04-25T01:05:05;2.03;;;0.93;;
55212;SDS011;41083;52.932;6.674;2023-04-25T01:07:31;3.88;;;1.05;;
55212;SDS011;41083;52.932;6.674;2023-04-25T01:09:56;4.40;;;1.05;;
55212;SDS011;41083;52.932;6.674;2023-04-25T01:12:22;2.53;;;0.98;;
55212;SDS011;41083;52.932;6.674;2023-04-25T01:14:48;4.43;;;1.10;;
55212;SDS011;41083;52.932;6.674;2023-04-25T01:17:14;4.20;;;0.93;;
55212;SDS011;41083;52.932;6.674;2023-04-25T01:19:40;4.00;;;0.98;;
55212;SDS011;41083;52.932;6.674;2023-04-25T01:22:06;6.18;;;1.10;;
55212;SDS011;41083;52.932;6.674;2023-04-25T01:24:32;6.03;;;1.40;;
55212;SDS011;41083;52.932;6.674;2023-04-25T01:26:58;3.58;;;1.00;;
55212;SDS011;41083;52.932;6.674;2023-04-25T01:29:25;3.83;;;1.00;;
55212;SDS011;41083;52.932;6.674;2023-04-25T01:31:52;2.55;;;1.15;;
55212;SDS011;41083;52.932;6.674;2023-04-25T01:34:18;4.72;;;0.90;;
55212;SDS011;41083;52.932;6.674;2023-04-25T01:36:44;2.78;;;1.10;;
55212;SDS011;41083;52.932;6.674;2023-04-25T01:39:10;4.38;;;1.48;;
55212;SDS011;41083;52.932;6.674;2023-04-25T01:41:36;3.40;;;0.80;;
55212;SDS011;41083;52.932;6.674;2023-04-25T01:44:02;2.08;;;1.20;;
55212;SDS011;41083;52.932;6.674;2023-04-25T01:46:28;4.75;;;1.48;;
55212;SDS011;41083;52.932;6.674;2023-04-25T01:48:55;2.58;;;1.25;;
55212;SDS011;41083;52.932;6.674;2023-04-25T01:51:21;2.05;;;1.00;;
55212;SDS011;41083;52.932;6.674;2023-04-25T01:53:46;3.97;;;0.77;;
55212;SDS011;41083;52.932;6.674;2023-04-25T01:56:12;2.28;;;1.17;;
55212;SDS011;41083;52.932;6.674;2023-04-25T01:58:38;5.07;;;1.20;;
55212;SDS011;41083;52.932;6.674;2023-04-25T02:01:03;2.88;;;1.10;;
55212;SDS011;41083;52.932;6.674;2023-04-25T02:03:30;4.38;;;1.38;;
55212;SDS011;41083;52.932;6.674;2023-04-25T02:05:56;3.40;;;0.73;;
55212;SDS011;41083;52.932;6.674;2023-04-25T02:08:22;2.10;;;0.80;;
55212;SDS011;41083;52.932;6.674;2023-04-25T02:10:48;2.15;;;1.30;;
55212;SDS011;41083;52.932;6.674;2023-04-25T02:13:13;6.70;;;0.95;;
55212;SDS011;41083;52.932;6.674;2023-04-25T02:15:39;5.78;;;1.58;;
55212;SDS011;41083;52.932;6.674;2023-04-25T02:18:06;2.35;;;1.00;;
55212;SDS011;41083;52.932;6.674;2023-04-25T02:20:32;4.93;;;1.08;;
55212;SDS011;41083;52.932;6.674;2023-04-25T02:22:58;4.40;;;1.00;;
55212;SDS011;41083;52.932;6.674;2023-04-25T02:25:23;4.30;;;1.25;;
55212;SDS011;41083;52.932;6.674;2023-04-25T02:27:49;5.70;;;0.98;;
55212;SDS011;41083;52.932;6.674;2023-04-25T02:30:16;2.60;;;1.50;;
55212;SDS011;41083;52.932;6.674;2023-04-25T02:32:42;5.18;;;0.90;;
55212;SDS011;41083;52.932;6.674;2023-04-25T02:35:07;3.78;;;1.20;;
55212;SDS011;41083;52.932;6.674;2023-04-25T02:37:34;1.17;;;0.50;;
55212;SDS011;41083;52.932;6.674;2023-04-25T02:40:00;2.28;;;0.63;;
55212;SDS011;41083;52.932;6.674;2023-04-25T02:42:27;2.13;;;0.85;;
55212;SDS011;41083;52.932;6.674;2023-04-25T02:44:53;3.35;;;0.75;;
55212;SDS011;41083;52.932;6.674;2023-04-25T02:47:19;3.45;;;0.98;;
55212;SDS011;41083;52.932;6.674;2023-04-25T02:49:45;3.45;;;0.93;;
55212;SDS011;41083;52.932;6.674;2023-04-25T02:52:11;1.23;;;0.77;;
55212;SDS011;41083;52.932;6.674;2023-04-25T02:54:37;5.47;;;0.85;;
55212;SDS011;41083;52.932;6.674;2023-04-25T02:57:03;2.90;;;0.60;;
55212;SDS011;41083;52.932;6.674;2023-04-25T02:59:29;0.98;;;0.50;;
55212;SDS011;41083;52.932;6.674;2023-04-25T03:01:54;3.60;;;1.13;;
55212;SDS011;41083;52.932;6.674;2023-04-25T03:04:20;2.95;;;1.15;;
55212;SDS011;41083;52.932;6.674;2023-04-25T03:06:48;1.88;;;0.93;;
55212;SDS011;41083;52.932;6.674;2023-04-25T03:09:14;3.55;;;0.90;;
55212;SDS011;41083;52.932;6.674;2023-04-25T03:11:40;2.67;;;1.00;;
55212;SDS011;41083;52.932;6.674;2023-04-25T03:14:06;4.90;;;0.85;;
55212;SDS011;41083;52.932;6.674;2023-04-25T03:16:32;2.17;;;0.90;;
55212;SDS011;41083;52.932;6.674;2023-04-25T03:18:57;4.10;;;0.65;;
55212;SDS011;41083;52.932;6.674;2023-04-25T03:21:23;1.83;;;0.57;;
55212;SDS011;41083;52.932;6.674;2023-04-25T03:23:49;3.97;;;0.88;;
55212;SDS011;41083;52.932;6.674;2023-04-25T03:26:14;1.92;;;0.93;;
55212;SDS011;41083;52.932;6.674;2023-04-25T03:28:40;1.95;;;0.82;;
55212;SDS011;41083;52.932;6.674;2023-04-25T03:31:06;1.27;;;0.82;;
55212;SDS011;41083;52.932;6.674;2023-04-25T03:33:32;1.10;;;0.50;;
55212;SDS011;41083;52.932;6.674;2023-04-25T03:35:57;5.47;;;1.00;;
55212;SDS011;41083;52.932;6.674;2023-04-25T03:38:23;2.15;;;0.52;;
55212;SDS011;41083;52.932;6.674;2023-04-25T03:40:49;1.60;;;0.82;;
55212;SDS011;41083;52.932;6.674;2023-04-25T03:43:15;3.08;;;1.02;;
55212;SDS011;41083;52.932;6.674;2023-04-25T03:45:41;2.75;;;0.80;;
55212;SDS011;41083;52.932;6.674;2023-04-25T03:48:07;1.48;;;0.60;;
55212;SDS011;41083;52.932;6.674;2023-04-25T03:50:32;3.92;;;0.73;;
55212;SDS011;41083;52.932;6.674;2023-04-25T03:52:58;2.42;;;0.75;;
55212;SDS011;41083;52.932;6.674;2023-04-25T03:55:24;1.35;;;0.60;;
55212;SDS011;41083;52.932;6.674;2023-04-25T03:57:49;2.75;;;0.60;;
55212;SDS011;41083;52.932;6.674;2023-04-25T04:00:15;3.92;;;0.65;;
55212;SDS011;41083;52.932;6.674;2023-04-25T04:02:41;0.73;;;0.32;;
55212;SDS011;41083;52.932;6.674;2023-04-25T04:05:06;1.80;;;0.50;;
55212;SDS011;41083;52.932;6.674;2023-04-25T04:07:32;3.28;;;0.38;;
55212;SDS011;41083;52.932;6.674;2023-04-25T04:09:58;2.95;;;0.88;;
55212;SDS011;41083;52.932;6.674;2023-04-25T04:12:24;1.83;;;0.50;;
55212;SDS011;41083;52.932;6.674;2023-04-25T04:14:49;2.40;;;0.40;;
55212;SDS011;41083;52.932;6.674;2023-04-25T04:17:15;1.17;;;0.50;;
55212;SDS011;41083;52.932;6.674;2023-04-25T04:19:41;0.60;;;0.30;;
55212;SDS011;41083;52.932;6.674;2023-04-25T04:22:06;4.38;;;0.60;;
55212;SDS011;41083;52.932;6.674;2023-04-25T04:24:32;1.92;;;0.50;;
55212;SDS011;41083;52.932;6.674;2023-04-25T04:26:58;0.77;;;0.40;;
55212;SDS011;41083;52.932;6.674;2023-04-25T04:29:24;2.28;;;0.50;;
55212;SDS011;41083;52.932;6.674;2023-04-25T04:31:50;2.13;;;0.50;;
55212;SDS011;41083;52.932;6.674;2023-04-25T04:34:17;0.88;;;0.28;;
55212;SDS011;41083;52.932;6.674;2023-04-25T04:36:43;1.85;;;1.20;;
55212;SDS011;41083;52.932;6.674;2023-04-25T04:39:11;1.80;;;0.65;;
55212;SDS011;41083;52.932;6.674;2023-04-25T04:41:37;1.58;;;0.43;;
55212;SDS011;41083;52.932;6.674;2023-04-25T04:44:02;0.43;;;0.25;;
55212;SDS011;41083;52.932;6.674;2023-04-25T04:46:28;2.47;;;0.77;;
55212;SDS011;41083;52.932;6.674;2023-04-25T04:48:55;1.20;;;0.50;;
55212;SDS011;41083;52.932;6.674;2023-04-25T04:51:21;1.55;;;0.60;;
55212;SDS011;41083;52.932;6.674;2023-04-25T04:53:47;4.07;;;0.70;;
55212;SDS011;41083;52.932;6.674;2023-04-25T04:56:12;1.00;;;0.80;;
55212;SDS011;41083;52.932;6.674;2023-04-25T04:58:38;1.40;;;0.55;;
55212;SDS011;41083;52.932;6.674;2023-04-25T05:01:04;2.58;;;0.55;;
55212;SDS011;41083;52.932;6.674;2023-04-25T05:03:30;5.45;;;0.70;;
55212;SDS011;41083;52.932;6.674;2023-04-25T05:05:55;0.63;;;0.40;;
55212;SDS011;41083;52.932;6.674;2023-04-25T05:08:21;0.50;;;0.40;;
55212;SDS011;41083;52.932;6.674;2023-04-25T05:10:46;2.03;;;0.47;;
55212;SDS011;41083;52.932;6.674;2023-04-25T05:13:12;0.75;;;0.32;;
55212;SDS011;41083;52.932;6.674;2023-04-25T05:15:37;2.83;;;0.60;;
55212;SDS011;41083;52.932;6.674;2023-04-25T05:18:03;0.95;;;0.43;;
55212;SDS011;41083;52.932;6.674;2023-04-25T05:20:29;1.13;;;0.68;;
55212;SDS011;41083;52.932;6.674;2023-04-25T05:22:54;0.70;;;0.30;;
55212;SDS011;41083;52.932;6.674;2023-04-25T05:25:20;1.67;;;0.55;;
55212;SDS011;41083;52.932;6.674;2023-04-25T05:27:46;3.00;;;0.47;;
55212;SDS011;41083;52.932;6.674;2023-04-25T05:30:11;2.20;;;0.35;;
55212;SDS011;41083;52.932;6.674;2023-04-25T05:32:37;2.60;;;0.35;;
55212;SDS011;41083;52.932;6.674;2023-04-25T05:35:03;1.10;;;0.40;;
55212;SDS011;41083;52.932;6.674;2023-04-25T05:37:28;3.45;;;0.50;;
55212;SDS011;41083;52.932;6.674;2023-04-25T05:39:56;0.82;;;0.50;;
55212;SDS011;41083;52.932;6.674;2023-04-25T05:42:21;2.97;;;0.80;;
55212;SDS011;41083;52.932;6.674;2023-04-25T05:44:47;2.28;;;0.65;;
55212;SDS011;41083;52.932;6.674;2023-04-25T05:47:13;1.77;;;0.60;;
55212;SDS011;41083;52.932;6.674;2023-04-25T05:49:38;1.55;;;0.40;;
55212;SDS011;41083;52.932;6.674;2023-04-25T05:52:04;3.20;;;0.70;;
55212;SDS011;41083;52.932;6.674;2023-04-25T05:54:29;3.90;;;0.47;;
55212;SDS011;41083;52.932;6.674;2023-04-25T05:56:58;2.30;;;0.50;;
55212;SDS011;41083;52.932;6.674;2023-04-25T05:59:24;1.48;;;0.50;;
55212;SDS011;41083;52.932;6.674;2023-04-25T06:01:50;3.15;;;0.50;;
55212;SDS011;41083;52.932;6.674;2023-04-25T06:04:16;3.33;;;0.40;;
55212;SDS011;41083;52.932;6.674;2023-04-25T06:06:42;5.97;;;0.93;;
55212;SDS011;41083;52.932;6.674;2023-04-25T06:09:07;1.05;;;0.47;;
55212;SDS011;41083;52.932;6.674;2023-04-25T06:11:33;2.65;;;0.70;;
55212;SDS011;41083;52.932;6.674;2023-04-25T06:13:58;2.80;;;0.60;;
55212;SDS011;41083;52.932;6.674;2023-04-25T06:16:24;2.28;;;0.85;;
55212;SDS011;41083;52.932;6.674;2023-04-25T06:18:50;1.75;;;0.55;;
55212;SDS011;41083;52.932;6.674;2023-04-25T06:21:16;1.52;;;0.40;;
55212;SDS011;41083;52.932;6.674;2023-04-25T06:23:42;4.38;;;0.68;;
55212;SDS011;41083;52.932;6.674;2023-04-25T06:26:07;2.08;;;1.02;;
55212;SDS011;41083;52.932;6.674;2023-04-25T06:28:33;1.85;;;0.70;;
55212;SDS011;41083;52.932;6.674;2023-04-25T06:30:58;5.10;;;0.63;;
55212;SDS011;41083;52.932;6.674;2023-04-25T06:33:24;3.42;;;0.50;;
55212;SDS011;41083;52.932;6.674;2023-04-25T06:35:50;1.90;;;0.73;;
55212;SDS011;41083;52.932;6.674;2023-04-25T06:38:15;1.25;;;0.68;;
55212;SDS011;41083;52.932;6.674;2023-04-25T06:40:41;1.17;;;0.60;;
55212;SDS011;41083;52.932;6.674;2023-04-25T06:43:07;4.25;;;0.85;;
55212;SDS011;41083;52.932;6.674;2023-04-25T06:45:32;1.02;;;0.50;;
55212;SDS011;41083;52.932;6.674;2023-04-25T06:47:58;1.23;;;0.60;;
55212;SDS011;41083;52.932;6.674;2023-04-25T06:50:23;1.25;;;0.75;;
55212;SDS011;41083;52.932;6.674;2023-04-25T06:52:49;2.17;;;0.50;;
55212;SDS011;41083;52.932;6.674;2023-04-25T06:55:15;3.67;;;0.70;;
55212;SDS011;41083;52.932;6.674;2023-04-25T06:57:40;5.85;;;0.60;;
55212;SDS011;41083;52.932;6.674;2023-04-25T07:00:06;4.97;;;0.90;;
55212;SDS011;41083;52.932;6.674;2023-04-25T07:02:34;3.15;;;0.40;;
55212;SDS011;41083;52.932;6.674;2023-04-25T07:05:00;1.13;;;0.40;;
55212;SDS011;41083;52.932;6.674;2023-04-25T07:07:26;1.63;;;0.43;;
55212;SDS011;41083;52.932;6.674;2023-04-25T07:09:52;2.80;;;0.40;;
55212;SDS011;41083;52.932;6.674;2023-04-25T07:12:17;0.80;;;0.22;;
55212;SDS011;41083;52.932;6.674;2023-04-25T07:14:43;1.15;;;0.38;;
55212;SDS011;41083;52.932;6.674;2023-04-25T07:17:08;1.20;;;0.30;;
55212;SDS011;41083;52.932;6.674;2023-04-25T07:19:34;1.70;;;0.17;;
55212;SDS011;41083;52.932;6.674;2023-04-25T07:22:01;3.45;;;0.57;;
55212;SDS011;41083;52.932;6.674;2023-04-25T07:24:27;1.88;;;0.60;;
55212;SDS011;41083;52.932;6.674;2023-04-25T07:26:53;0.20;;;0.20;;
55212;SDS011;41083;52.932;6.674;2023-04-25T07:29:19;1.98;;;0.30;;
55212;SDS011;41083;52.932;6.674;2023-04-25T07:31:44;1.38;;;0.60;;
55212;SDS011;41083;52.932;6.674;2023-04-25T07:34:10;1.17;;;0.22;;
55212;SDS011;41083;52.932;6.674;2023-04-25T07:36:35;1.95;;;0.43;;
55212;SDS011;41083;52.932;6.674;2023-04-25T07:39:01;2.72;;;0.50;;
55212;SDS011;41083;52.932;6.674;2023-04-25T07:41:27;0.80;;;0.20;;
55212;SDS011;41083;52.932;6.674;2023-04-25T07:43:52;1.63;;;0.50;;
55212;SDS011;41083;52.932;6.674;2023-04-25T07:46:18;1.98;;;0.60;;
55212;SDS011;41083;52.932;6.674;2023-04-25T07:48:43;2.47;;;0.30;;
55212;SDS011;41083;52.932;6.674;2023-04-25T07:51:09;1.15;;;0.30;;
55212;SDS011;41083;52.932;6.674;2023-04-25T07:53:35;0.73;;;0.38;;
55212;SDS011;41083;52.932;6.674;2023-04-25T07:56:02;2.33;;;0.20;;
55212;SDS011;41083;52.932;6.674;2023-04-25T07:58:28;1.25;;;0.52;;
55212;SDS011;41083;52.932;6.674;2023-04-25T08:00:53;1.52;;;0.32;;
55212;SDS011;41083;52.932;6.674;2023-04-25T08:03:19;1.00;;;0.73;;
55212;SDS011;41083;52.932;6.674;2023-04-25T08:05:46;2.28;;;0.47;;
55212;SDS011;41083;52.932;6.674;2023-04-25T08:08:11;1.67;;;0.40;;
55212;SDS011;41083;52.932;6.674;2023-04-25T08:10:37;2.40;;;0.55;;
55212;SDS011;41083;52.932;6.674;2023-04-25T08:13:03;2.10;;;0.32;;
55212;SDS011;41083;52.932;6.674;2023-04-25T08:15:28;2.95;;;0.45;;
55212;SDS011;41083;52.932;6.674;2023-04-25T08:17:54;0.93;;;0.40;;
55212;SDS011;41083;52.932;6.674;2023-04-25T08:20:20;1.77;;;0.35;;
55212;SDS011;41083;52.932;6.674;2023-04-25T08:22:46;2.58;;;0.40;;
55212;SDS011;41083;52.932;6.674;2023-04-25T08:25:13;5.65;;;1.02;;
55212;SDS011;41083;52.932;6.674;2023-04-25T08:27:39;0.77;;;0.20;;
55212;SDS011;41083;52.932;6.674;2023-04-25T08:30:05;2.75;;;0.73;;
55212;SDS011;41083;52.932;6.674;2023-04-25T08:32:33;0.98;;;0.38;;
55212;SDS011;41083;52.932;6.674;2023-04-25T08:34:58;3.05;;;0.50;;
55212;SDS011;41083;52.932;6.674;2023-04-25T08:37:24;1.90;;;0.68;;
55212;SDS011;41083;52.932;6.674;2023-04-25T08:39:50;4.90;;;0.63;;
55212;SDS011;41083;52.932;6.674;2023-04-25T08:42:19;2.38;;;0.80;;
55212;SDS011;41083;52.932;6.674;2023-04-25T08:44:46;2.55;;;0.35;;
55212;SDS011;41083;52.932;6.674;2023-04-25T08:47:13;1.20;;;0.50;;
55212;SDS011;41083;52.932;6.674;2023-04-25T08:49:39;2.20;;;0.50;;
55212;SDS011;41083;52.932;6.674;2023-04-25T08:52:07;1.92;;;0.40;;
55212;SDS011;41083;52.932;6.674;2023-04-25T08:54:35;1.00;;;0.50;;
55212;SDS011;41083;52.932;6.674;2023-04-25T08:57:02;0.98;;;0.20;;
55212;SDS011;41083;52.932;6.674;2023-04-25T08:59:29;2.05;;;0.25;;
55212;SDS011;41083;52.932;6.674;2023-04-25T09:01:55;2.28;;;0.40;;
55212;SDS011;41083;52.932;6.674;2023-04-25T09:04:21;2.15;;;0.40;;
55212;SDS011;41083;52.932;6.674;2023-04-25T09:06:47;4.45;;;0.40;;
55212;SDS011;41083;52.932;6.674;2023-04-25T09:09:13;0.70;;;0.30;;
55212;SDS011;41083;52.932;6.674;2023-04-25T09:11:39;1.05;;;0.10;;
55212;SDS011;41083;52.932;6.674;2023-04-25T09:14:15;2.58;;;0.30;;
55212;SDS011;41083;52.932;6.674;2023-04-25T09:17:19;1.10;;;0.40;;
55212;SDS011;41083;52.932;6.674;2023-04-25T09:19:38;0.40;;;0.20;;
55212;SDS011;41083;52.932;6.674;2023-04-25T09:22:05;0.55;;;0.20;;
55212;SDS011;41083;52.932;6.674;2023-04-25T09:24:38;1.20;;;0.45;;
55212;SDS011;41083;52.932;6.674;2023-04-25T09:27:10;0.47;;;0.10;;
55212;SDS011;41083;52.932;6.674;2023-04-25T09:29:40;0.20;;;0.20;;
55212;SDS011;41083;52.932;6.674;2023-04-25T09:32:10;0.20;;;0.10;;
55212;SDS011;41083;52.932;6.674;2023-04-25T09:34:56;0.75;;;0.22;;
55212;SDS011;41083;52.932;6.674;2023-04-25T09:37:26;0.50;;;0.20;;
55212;SDS011;41083;52.932;6.674;2023-04-25T09:39:57;1.10;;;0.38;;
55212;SDS011;41083;52.932;6.674;2023-04-25T09:42:30;3.83;;;0.40;;
55212;SDS011;41083;52.932;6.674;2023-04-25T09:44:57;3.55;;;0.35;;
55212;SDS011;41083;52.932;6.674;2023-04-25T09:47:23;3.95;;;0.30;;
55212;SDS011;41083;52.932;6.674;2023-04-25T09:49:51;2.50;;;0.30;;
55212;SDS011;41083;52.932;6.674;2023-04-25T09:52:21;0.98;;;0.38;;
55212;SDS011;41083;52.932;6.674;2023-04-25T09:54:48;0.25;;;0.25;;
55212;SDS011;41083;52.932;6.674;2023-04-25T09:57:18;0.75;;;0.30;;
55212;SDS011;41083;52.932;6.674;2023-04-25T09:59:46;0.82;;;0.30;;
55212;SDS011;41083;52.932;6.674;2023-04-25T10:02:14;0.98;;;0.28;;
55212;SDS011;41083;52.932;6.674;2023-04-25T10:04:42;0.90;;;0.40;;
55212;SDS011;41083;52.932;6.674;2023-04-25T10:07:12;3.78;;;0.35;;
55212;SDS011;41083;52.932;6.674;2023-04-25T10:09:39;4.32;;;0.50;;
55212;SDS011;41083;52.932;6.674;2023-04-25T10:12:05;2.20;;;0.25;;
55212;SDS011;41083;52.932;6.674;2023-04-25T10:14:32;1.88;;;0.40;;
55212;SDS011;41083;52.932;6.674;2023-04-25T10:16:59;1.48;;;0.57;;
55212;SDS011;41083;52.932;6.674;2023-04-25T10:19:25;1.92;;;0.50;;
55212;SDS011;41083;52.932;6.674;2023-04-25T10:22:15;0.93;;;0.50;;
55212;SDS011;41083;52.932;6.674;2023-04-25T10:24:39;2.13;;;0.38;;
55212;SDS011;41083;52.932;6.674;2023-04-25T10:27:06;3.65;;;0.47;;
55212;SDS011;41083;52.932;6.674;2023-04-25T10:29:33;0.65;;;0.17;;
55212;SDS011;41083;52.932;6.674;2023-04-25T10:32:00;1.50;;;0.38;;
55212;SDS011;41083;52.932;6.674;2023-04-25T10:37:11;1.00;;;0.47;;
55212;SDS011;41083;52.932;6.674;2023-04-25T10:39:38;1.40;;;0.20;;
55212;SDS011;41083;52.932;6.674;2023-04-25T10:42:07;2.88;;;0.73;;
55212;SDS011;41083;52.932;6.674;2023-04-25T10:44:33;3.85;;;0.50;;
55212;SDS011;41083;52.932;6.674;2023-04-25T10:47:00;0.68;;;0.40;;
55212;SDS011;41083;52.932;6.674;2023-04-25T10:49:28;0.47;;;0.40;;
55212;SDS011;41083;52.932;6.674;2023-04-25T10:52:12;11.80;;;0.85;;
55212;SDS011;41083;52.932;6.674;2023-04-25T10:54:56;3.72;;;0.50;;
55212;SDS011;41083;52.932;6.674;2023-04-25T10:57:41;1.85;;;0.55;;
55212;SDS011;41083;52.932;6.674;2023-04-25T11:00:13;1.83;;;0.40;;
55212;SDS011;41083;52.932;6.674;2023-04-25T11:02:40;2.28;;;0.80;;
55212;SDS011;41083;52.932;6.674;2023-04-25T11:05:16;1.20;;;0.40;;
55212;SDS011;41083;52.932;6.674;2023-04-25T11:07:54;0.32;;;0.22;;
55212;SDS011;41083;52.932;6.674;2023-04-25T11:10:32;2.53;;;0.60;;
55212;SDS011;41083;52.932;6.674;2023-04-25T11:13:00;1.08;;;0.25;;
55212;SDS011;41083;52.932;6.674;2023-04-25T11:15:26;1.98;;;0.40;;
55212;SDS011;41083;52.932;6.674;2023-04-25T11:17:52;3.28;;;1.08;;
55212;SDS011;41083;52.932;6.674;2023-04-25T11:20:19;1.65;;;1.40;;
55212;SDS011;41083;52.932;6.674;2023-04-25T11:22:45;2.47;;;0.45;;
55212;SDS011;41083;52.932;6.674;2023-04-25T11:25:12;0.85;;;0.20;;
55212;SDS011;41083;52.932;6.674;2023-04-25T11:27:49;2.17;;;0.43;;
55212;SDS011;41083;52.932;6.674;2023-04-25T11:30:19;3.70;;;0.63;;
55212;SDS011;41083;52.932;6.674;2023-04-25T11:32:45;1.75;;;0.55;;
55212;SDS011;41083;52.932;6.674;2023-04-25T11:35:11;0.73;;;0.30;;
55212;SDS011;41083;52.932;6.674;2023-04-25T11:37:40;0.55;;;0.38;;
55212;SDS011;41083;52.932;6.674;2023-04-25T11:40:06;3.03;;;0.63;;
55212;SDS011;41083;52.932;6.674;2023-04-25T11:42:34;2.05;;;0.40;;
55212;SDS011;41083;52.932;6.674;2023-04-25T11:45:05;0.70;;;0.32;;
55212;SDS011;41083;52.932;6.674;2023-04-25T11:47:31;2.22;;;0.40;;
55212;SDS011;41083;52.932;6.674;2023-04-25T11:49:58;1.98;;;0.40;;
55212;SDS011;41083;52.932;6.674;2023-04-25T11:52:47;0.95;;;0.30;;
55212;SDS011;41083;52.932;6.674;2023-04-25T11:55:15;1.25;;;0.20;;
55212;SDS011;41083;52.932;6.674;2023-04-25T11:57:43;0.80;;;0.15;;
55212;SDS011;41083;52.932;6.674;2023-04-25T12:00:14;1.30;;;0.45;;
55212;SDS011;41083;52.932;6.674;2023-04-25T12:02:42;2.20;;;0.95;;
55212;SDS011;41083;52.932;6.674;2023-04-25T12:05:12;3.17;;;0.57;;
55212;SDS011;41083;52.932;6.674;2023-04-25T12:07:40;2.13;;;0.30;;
55212;SDS011;41083;52.932;6.674;2023-04-25T12:10:13;1.63;;;0.43;;
55212;SDS011;41083;52.932;6.674;2023-04-25T12:12:44;2.15;;;0.77;;
55212;SDS011;41083;52.932;6.674;2023-04-25T12:15:18;1.77;;;0.38;;
55212;SDS011;41083;52.932;6.674;2023-04-25T12:17:50;2.45;;;0.73;;
55212;SDS011;41083;52.932;6.674;2023-04-25T12:20:21;1.75;;;0.40;;
55212;SDS011;41083;52.932;6.674;2023-04-25T12:22:50;6.00;;;0.85;;
55212;SDS011;41083;52.932;6.674;2023-04-25T12:28:12;1.77;;;0.60;;
55212;SDS011;41083;52.932;6.674;2023-04-25T12:33:23;2.70;;;0.93;;
55212;SDS011;41083;52.932;6.674;2023-04-25T12:35:50;1.35;;;0.50;;
55212;SDS011;41083;52.932;6.674;2023-04-25T12:38:22;2.58;;;0.60;;
55212;SDS011;41083;52.932;6.674;2023-04-25T12:40:48;1.52;;;0.70;;
55212;SDS011;41083;52.932;6.674;2023-04-25T12:43:13;3.95;;;0.70;;
55212;SDS011;41083;52.932;6.674;2023-04-25T12:45:39;3.75;;;0.60;;
55212;SDS011;41083;52.932;6.674;2023-04-25T12:48:05;0.80;;;0.28;;
55212;SDS011;41083;52.932;6.674;2023-04-25T12:50:30;2.22;;;0.32;;
55212;SDS011;41083;52.932;6.674;2023-04-25T12:52:57;3.30;;;0.38;;
55212;SDS011;41083;52.932;6.674;2023-04-25T12:55:22;2.17;;;0.30;;
55212;SDS011;41083;52.932;6.674;2023-04-25T12:57:48;4.57;;;0.80;;
55212;SDS011;41083;52.932;6.674;2023-04-25T13:00:13;1.70;;;0.50;;
55212;SDS011;41083;52.932;6.674;2023-04-25T13:02:40;3.92;;;0.47;;
55212;SDS011;41083;52.932;6.674;2023-04-25T13:05:05;2.38;;;0.50;;
55212;SDS011;41083;52.932;6.674;2023-04-25T13:07:31;1.15;;;0.30;;
55212;SDS011;41083;52.932;6.674;2023-04-25T13:09:57;1.52;;;0.50;;
55212;SDS011;41083;52.932;6.674;2023-04-25T13:12:22;2.35;;;0.63;;
55212;SDS011;41083;52.932;6.674;2023-04-25T13:14:48;4.78;;;0.52;;
55212;SDS011;41083;52.932;6.674;2023-04-25T13:17:13;4.35;;;0.85;;
55212;SDS011;41083;52.932;6.674;2023-04-25T13:19:39;0.70;;;0.30;;
55212;SDS011;41083;52.932;6.674;2023-04-25T13:22:05;1.05;;;0.60;;
55212;SDS011;41083;52.932;6.674;2023-04-25T13:24:31;2.53;;;0.60;;
55212;SDS011;41083;52.932;6.674;2023-04-25T13:26:56;1.65;;;0.40;;
55212;SDS011;41083;52.932;6.674;2023-04-25T13:29:22;4.05;;;0.95;;
55212;SDS011;41083;52.932;6.674;2023-04-25T13:31:47;3.30;;;0.52;;
55212;SDS011;41083;52.932;6.674;2023-04-25T13:34:13;6.28;;;0.40;;
55212;SDS011;41083;52.932;6.674;2023-04-25T13:36:38;4.30;;;0.50;;
55212;SDS011;41083;52.932;6.674;2023-04-25T13:39:04;2.13;;;0.90;;
55212;SDS011;41083;52.932;6.674;2023-04-25T13:41:30;2.83;;;0.50;;
55212;SDS011;41083;52.932;6.674;2023-04-25T13:43:55;0.63;;;0.28;;
55212;SDS011;41083;52.932;6.674;2023-04-25T13:46:21;0.95;;;0.38;;
55212;SDS011;41083;52.932;6.674;2023-04-25T13:48:46;1.52;;;0.30;;
55212;SDS011;41083;52.932;6.674;2023-04-25T13:51:14;1.30;;;0.30;;
55212;SDS011;41083;52.932;6.674;2023-04-25T13:53:41;0.47;;;0.20;;
55212;SDS011;41083;52.932;6.674;2023-04-25T13:56:06;1.33;;;0.52;;
55212;SDS011;41083;52.932;6.674;2023-04-25T13:58:32;1.42;;;0.45;;
55212;SDS011;41083;52.932;6.674;2023-04-25T14:00:58;1.02;;;0.40;;
55212;SDS011;41083;52.932;6.674;2023-04-25T14:03:23;1.77;;;0.30;;
55212;SDS011;41083;52.932;6.674;2023-04-25T14:05:50;1.23;;;0.35;;
55212;SDS011;41083;52.932;6.674;2023-04-25T14:08:16;0.88;;;0.40;;
55212;SDS011;41083;52.932;6.674;2023-04-25T14:10:42;0.90;;;0.40;;
55212;SDS011;41083;52.932;6.674;2023-04-25T14:13:07;2.58;;;0.40;;
55212;SDS011;41083;52.932;6.674;2023-04-25T14:15:33;5.63;;;1.08;;
55212;SDS011;41083;52.932;6.674;2023-04-25T14:17:59;0.65;;;0.40;;
55212;SDS011;41083;52.932;6.674;2023-04-25T14:20:25;0.68;;;0.30;;
55212;SDS011;41083;52.932;6.674;2023-04-25T14:22:51;1.95;;;0.40;;
55212;SDS011;41083;52.932;6.674;2023-04-25T14:25:19;0.73;;;0.30;;
55212;SDS011;41083;52.932;6.674;2023-04-25T14:27:45;2.60;;;0.77;;
55212;SDS011;41083;52.932;6.674;2023-04-25T14:30:14;0.80;;;0.40;;
55212;SDS011;41083;52.932;6.674;2023-04-25T14:32:41;2.28;;;0.40;;
55212;SDS011;41083;52.932;6.674;2023-04-25T14:35:07;0.75;;;0.50;;
55212;SDS011;41083;52.932;6.674;2023-04-25T14:37:32;1.90;;;0.40;;
55212;SDS011;41083;52.932;6.674;2023-04-25T14:39:58;0.55;;;0.40;;
55212;SDS011;41083;52.932;6.674;2023-04-25T14:42:24;2.92;;;0.63;;
55212;SDS011;41083;52.932;6.674;2023-04-25T14:44:49;1.70;;;0.50;;
55212;SDS011;41083;52.932;6.674;2023-04-25T14:47:15;0.80;;;0.40;;
55212;SDS011;41083;52.932;6.674;2023-04-25T14:49:41;1.33;;;0.50;;
55212;SDS011;41083;52.932;6.674;2023-04-25T14:52:07;1.92;;;0.50;;
55212;SDS011;41083;52.932;6.674;2023-04-25T14:54:32;2.85;;;0.65;;